RYR74YD LEPA-EDNY
Flight info
| Callsign | RYR74YD |
|---|---|
| Flight time | 1h 54m |
| Altitude | 32000 |
| Route | MEROS DCT LAPIT DCT CHELY DCT LUMAS DCT UNANA/N0435F300 DCT STP DCT RAPED DCT PIGOS DCT EKSID DCT NOSTA DCT NOPMU DCT LAGEN DCT TAGIP DCT TISAX DCT UNIMI L12 MOGTI P66 KPT KPT1F |
| Aircraft | A320/M-SDE3FGHIRWY/LB1 |
Departure
| Time | 2026-04-26 19:05 |
|---|---|
| Airport | Palma de Mallorca Airport (LEPA) |
Arrival
| Time | 2026-04-26 21:00 |
|---|---|
| Airport | Bodensee Airport Friedrichshafen (EDNY) |
| Time | Latitude | Longitude | Altitude | Speed | Heading |
|---|---|---|---|---|---|
| 2026-04-26 18:32 | 39.54839 | 2.73575 | 29 ft | 0 kts | 58° |
| 2026-04-26 18:50 | 39.54837 | 2.73572 | 30 ft | 2 kts | 58° |
| 2026-04-26 18:51 | 39.54828 | 2.73553 | 30 ft | 2 kts | 58° |
| 2026-04-26 18:51 | 39.54819 | 2.73534 | 30 ft | 2 kts | 90° |
| 2026-04-26 18:51 | 39.54824 | 2.73515 | 30 ft | 0 kts | 153° |
| 2026-04-26 18:57 | 39.54815 | 2.73520 | 30 ft | 7 kts | 160° |
| 2026-04-26 18:57 | 39.54729 | 2.73564 | 30 ft | 11 kts | 149° |
| 2026-04-26 18:57 | 39.54661 | 2.73626 | 30 ft | 13 kts | 121° |
| 2026-04-26 18:58 | 39.54693 | 2.73739 | 30 ft | 15 kts | 59° |
| 2026-04-26 18:58 | 39.54753 | 2.73864 | 30 ft | 18 kts | 59° |
| 2026-04-26 18:58 | 39.54830 | 2.73997 | 30 ft | 19 kts | 19° |
| 2026-04-26 18:58 | 39.54943 | 2.73978 | 30 ft | 16 kts | 60° |
| 2026-04-26 18:59 | 39.55012 | 2.73983 | 30 ft | 13 kts | 330° |
| 2026-04-26 18:59 | 39.55129 | 2.73891 | 30 ft | 24 kts | 332° |
| 2026-04-26 18:59 | 39.55279 | 2.73775 | 30 ft | 26 kts | 328° |
| 2026-04-26 18:59 | 39.55435 | 2.73649 | 30 ft | 27 kts | 328° |
| 2026-04-26 19:00 | 39.55593 | 2.73525 | 30 ft | 19 kts | 330° |
| 2026-04-26 19:00 | 39.55694 | 2.73584 | 30 ft | 20 kts | 57° |
| 2026-04-26 19:00 | 39.55771 | 2.73744 | 30 ft | 23 kts | 58° |
| 2026-04-26 19:00 | 39.55860 | 2.73933 | 30 ft | 26 kts | 58° |
| 2026-04-26 19:01 | 39.55957 | 2.74139 | 30 ft | 27 kts | 59° |
| 2026-04-26 19:01 | 39.56054 | 2.74344 | 30 ft | 27 kts | 58° |
| 2026-04-26 19:01 | 39.56135 | 2.74454 | 30 ft | 0 kts | 7° |
| 2026-04-26 19:03 | 39.56139 | 2.74455 | 30 ft | 4 kts | 5° |
| 2026-04-26 19:03 | 39.56237 | 2.74395 | 30 ft | 20 kts | 323° |
| 2026-04-26 19:04 | 39.56223 | 2.74253 | 30 ft | 18 kts | 238° |
| 2026-04-26 19:04 | 39.56152 | 2.74102 | 30 ft | 23 kts | 239° |
| 2026-04-26 19:04 | 39.55948 | 2.73669 | 30 ft | 92 kts | 238° |
| 2026-04-26 19:04 | 39.55506 | 2.72735 | 31 ft | 149 kts | 238° |
| 2026-04-26 19:05 | 39.54315 | 2.70240 | 1013 ft | 164 kts | 236° |
| 2026-04-26 19:05 | 39.53718 | 2.68979 | 1672 ft | 164 kts | 237° |
| 2026-04-26 19:05 | 39.53099 | 2.67666 | 2077 ft | 181 kts | 238° |
| 2026-04-26 19:06 | 39.52403 | 2.66191 | 2364 ft | 203 kts | 237° |
| 2026-04-26 19:06 | 39.51622 | 2.64539 | 2666 ft | 227 kts | 237° |
| 2026-04-26 19:06 | 39.50786 | 2.62776 | 3365 ft | 230 kts | 237° |
| 2026-04-26 19:06 | 39.49904 | 2.61032 | 4105 ft | 237 kts | 229° |
| 2026-04-26 19:07 | 39.48593 | 2.59612 | 4485 ft | 258 kts | 206° |
| 2026-04-26 19:07 | 39.46906 | 2.58634 | 5084 ft | 271 kts | 201° |
| 2026-04-26 19:07 | 39.45157 | 2.57660 | 5920 ft | 276 kts | 202° |
| 2026-04-26 19:07 | 39.43348 | 2.56801 | 6764 ft | 279 kts | 187° |
| 2026-04-26 19:08 | 39.41443 | 2.57057 | 7533 ft | 279 kts | 154° |
| 2026-04-26 19:08 | 39.39930 | 2.58588 | 8334 ft | 279 kts | 129° |
| 2026-04-26 19:08 | 39.38584 | 2.60412 | 9154 ft | 283 kts | 141° |
| 2026-04-26 19:08 | 39.36991 | 2.61929 | 9997 ft | 286 kts | 140° |
| 2026-04-26 19:09 | 39.35661 | 2.63854 | 10561 ft | 296 kts | 120° |
| 2026-04-26 19:09 | 39.35000 | 2.66456 | 10788 ft | 319 kts | 94° |
| 2026-04-26 19:09 | 39.35224 | 2.69384 | 11122 ft | 336 kts | 80° |
| 2026-04-26 19:09 | 39.35646 | 2.72378 | 11776 ft | 341 kts | 80° |
| 2026-04-26 19:10 | 39.36073 | 2.75416 | 12508 ft | 345 kts | 80° |
| 2026-04-26 19:10 | 39.36498 | 2.78483 | 13237 ft | 349 kts | 80° |
| 2026-04-26 19:10 | 39.36923 | 2.81585 | 13894 ft | 353 kts | 80° |
| 2026-04-26 19:10 | 39.37346 | 2.84712 | 14082 ft | 354 kts | 80° |
| 2026-04-26 19:11 | 39.37763 | 2.87844 | 14141 ft | 353 kts | 81° |
| 2026-04-26 19:11 | 39.38177 | 2.90986 | 14406 ft | 356 kts | 81° |
| 2026-04-26 19:11 | 39.38593 | 2.94151 | 15093 ft | 358 kts | 81° |
| 2026-04-26 19:11 | 39.39013 | 2.97336 | 15744 ft | 361 kts | 81° |
| 2026-04-26 19:12 | 39.39439 | 3.00547 | 16380 ft | 364 kts | 81° |
| 2026-04-26 19:12 | 39.39871 | 3.03786 | 17007 ft | 367 kts | 80° |
| 2026-04-26 19:12 | 39.40304 | 3.07051 | 17615 ft | 370 kts | 80° |
| 2026-04-26 19:12 | 39.40591 | 3.09230 | 18015 ft | 373 kts | 80° |
| 2026-04-26 19:13 | 39.41026 | 3.12546 | 18609 ft | 376 kts | 80° |
| 2026-04-26 19:13 | 39.41464 | 3.15893 | 19149 ft | 379 kts | 80° |
| 2026-04-26 19:13 | 39.41904 | 3.19266 | 19675 ft | 382 kts | 81° |
| 2026-04-26 19:13 | 39.42548 | 3.23763 | 20380 ft | 386 kts | 75° |
| 2026-04-26 19:14 | 39.43109 | 3.26001 | 20733 ft | 388 kts | 68° |
| 2026-04-26 19:14 | 39.44315 | 3.29135 | 21255 ft | 392 kts | 59° |
| 2026-04-26 19:14 | 39.45730 | 3.32171 | 21780 ft | 395 kts | 59° |
| 2026-04-26 19:14 | 39.46671 | 3.34195 | 22120 ft | 397 kts | 59° |
| 2026-04-26 19:15 | 39.48576 | 3.38321 | 22787 ft | 401 kts | 59° |
| 2026-04-26 19:15 | 39.50009 | 3.41441 | 23277 ft | 404 kts | 59° |
| 2026-04-26 19:15 | 39.51449 | 3.44582 | 23743 ft | 408 kts | 59° |
| 2026-04-26 19:15 | 39.52900 | 3.47750 | 24143 ft | 410 kts | 59° |
| 2026-04-26 19:16 | 39.54361 | 3.50947 | 24512 ft | 414 kts | 59° |
| 2026-04-26 19:16 | 39.55833 | 3.54164 | 24895 ft | 416 kts | 59° |
| 2026-04-26 19:16 | 39.57312 | 3.57398 | 25270 ft | 419 kts | 59° |
| 2026-04-26 19:16 | 39.58800 | 3.60655 | 25644 ft | 421 kts | 59° |
| 2026-04-26 19:17 | 39.60294 | 3.63933 | 26004 ft | 423 kts | 59° |
| 2026-04-26 19:17 | 39.61795 | 3.67231 | 26374 ft | 426 kts | 59° |
| 2026-04-26 19:17 | 39.63302 | 3.70547 | 26719 ft | 428 kts | 59° |
| 2026-04-26 19:17 | 39.64818 | 3.73880 | 27083 ft | 430 kts | 59° |
| 2026-04-26 19:18 | 39.66342 | 3.77231 | 27420 ft | 432 kts | 59° |
| 2026-04-26 19:18 | 39.67873 | 3.80597 | 27774 ft | 434 kts | 60° |
| 2026-04-26 19:18 | 39.69412 | 3.83983 | 28094 ft | 437 kts | 60° |
| 2026-04-26 19:18 | 39.70956 | 3.87387 | 28437 ft | 438 kts | 60° |
| 2026-04-26 19:19 | 39.72506 | 3.90809 | 28737 ft | 441 kts | 59° |
| 2026-04-26 19:19 | 39.74060 | 3.94251 | 29066 ft | 442 kts | 60° |
| 2026-04-26 19:19 | 39.75618 | 3.97711 | 29347 ft | 445 kts | 60° |
| 2026-04-26 19:19 | 39.77182 | 4.01191 | 29638 ft | 447 kts | 60° |
| 2026-04-26 19:20 | 39.78756 | 4.04689 | 29911 ft | 449 kts | 60° |
| 2026-04-26 19:20 | 39.79798 | 4.07007 | 30100 ft | 450 kts | 60° |
| 2026-04-26 19:20 | 39.81916 | 4.11719 | 30422 ft | 452 kts | 60° |
| 2026-04-26 19:20 | 39.83668 | 4.15124 | 30631 ft | 454 kts | 51° |
| 2026-04-26 19:21 | 39.85857 | 4.18090 | 30851 ft | 456 kts | 41° |
| 2026-04-26 19:21 | 39.88416 | 4.20516 | 31148 ft | 455 kts | 31° |
| 2026-04-26 19:21 | 39.91252 | 4.22339 | 31431 ft | 455 kts | 21° |
| 2026-04-26 19:21 | 39.94284 | 4.23492 | 31719 ft | 455 kts | 11° |
| 2026-04-26 19:22 | 39.97399 | 4.24227 | 32003 ft | 455 kts | 9° |
| 2026-04-26 19:22 | 40.00512 | 4.24950 | 32140 ft | 453 kts | 9° |
| 2026-04-26 19:22 | 40.03588 | 4.25666 | 32161 ft | 446 kts | 9° |
| 2026-04-26 19:23 | 40.09658 | 4.27088 | 32156 ft | 442 kts | 10° |
| 2026-04-26 19:23 | 40.15706 | 4.28517 | 32156 ft | 441 kts | 10° |
| 2026-04-26 19:24 | 40.21746 | 4.29951 | 32153 ft | 441 kts | 9° |
| 2026-04-26 19:24 | 40.30809 | 4.32107 | 32161 ft | 443 kts | 9° |
| 2026-04-26 19:25 | 40.33823 | 4.32820 | 32296 ft | 448 kts | 9° |
| 2026-04-26 19:25 | 40.35899 | 4.33309 | 32434 ft | 450 kts | 9° |
| 2026-04-26 19:25 | 40.39981 | 4.34273 | 32807 ft | 450 kts | 9° |
| 2026-04-26 19:25 | 40.43061 | 4.35002 | 33117 ft | 449 kts | 9° |
| 2026-04-26 19:26 | 40.46131 | 4.35734 | 33432 ft | 449 kts | 9° |
| 2026-04-26 19:26 | 40.49204 | 4.36467 | 33748 ft | 448 kts | 9° |
| 2026-04-26 19:26 | 40.52268 | 4.37197 | 34065 ft | 447 kts | 9° |
| 2026-04-26 19:26 | 40.55327 | 4.37927 | 34350 ft | 447 kts | 9° |
| 2026-04-26 19:27 | 40.58381 | 4.38658 | 34624 ft | 446 kts | 9° |
| 2026-04-26 19:27 | 40.61430 | 4.39392 | 34897 ft | 445 kts | 9° |
| 2026-04-26 19:27 | 40.64474 | 4.40125 | 35102 ft | 445 kts | 9° |
| 2026-04-26 19:27 | 40.67518 | 4.40859 | 35157 ft | 444 kts | 9° |
| 2026-04-26 19:28 | 40.73598 | 4.42315 | 35158 ft | 444 kts | 9° |
| 2026-04-26 19:28 | 40.79675 | 4.43766 | 35157 ft | 444 kts | 9° |
| 2026-04-26 19:29 | 40.85747 | 4.45229 | 35156 ft | 443 kts | 9° |
| 2026-04-26 19:29 | 40.91819 | 4.46698 | 35159 ft | 443 kts | 9° |
| 2026-04-26 19:30 | 40.94847 | 4.47432 | 35355 ft | 443 kts | 9° |
| 2026-04-26 19:30 | 40.97879 | 4.48165 | 35604 ft | 443 kts | 9° |
| 2026-04-26 19:30 | 41.00908 | 4.48896 | 35855 ft | 442 kts | 9° |
| 2026-04-26 19:30 | 41.02907 | 4.49381 | 36019 ft | 442 kts | 9° |
| 2026-04-26 19:31 | 41.06958 | 4.50364 | 36152 ft | 443 kts | 8° |
| 2026-04-26 19:31 | 41.09987 | 4.51101 | 36155 ft | 442 kts | 8° |
| 2026-04-26 19:31 | 41.16044 | 4.52574 | 36155 ft | 442 kts | 8° |
| 2026-04-26 19:32 | 41.22096 | 4.54048 | 36153 ft | 442 kts | 8° |
| 2026-04-26 19:32 | 41.28151 | 4.55527 | 36153 ft | 442 kts | 8° |
| 2026-04-26 19:33 | 41.34198 | 4.57005 | 36151 ft | 442 kts | 8° |
| 2026-04-26 19:33 | 41.40250 | 4.58488 | 36153 ft | 442 kts | 8° |
| 2026-04-26 19:34 | 41.46300 | 4.59976 | 36150 ft | 442 kts | 8° |
| 2026-04-26 19:34 | 41.52159 | 4.61422 | 36152 ft | 442 kts | 8° |
| 2026-04-26 19:35 | 41.58205 | 4.62920 | 36148 ft | 442 kts | 8° |
| 2026-04-26 19:35 | 41.64258 | 4.64418 | 36149 ft | 442 kts | 8° |
| 2026-04-26 19:36 | 41.69275 | 4.65761 | 36155 ft | 445 kts | 14° |
| 2026-04-26 19:36 | 41.73123 | 4.67821 | 36149 ft | 448 kts | 26° |
| 2026-04-26 19:36 | 41.75747 | 4.70094 | 36150 ft | 451 kts | 36° |
| 2026-04-26 19:37 | 41.80292 | 4.75838 | 36148 ft | 453 kts | 43° |
| 2026-04-26 19:37 | 41.84777 | 4.81772 | 36153 ft | 453 kts | 43° |
| 2026-04-26 19:38 | 41.89262 | 4.87713 | 36161 ft | 453 kts | 42° |
| 2026-04-26 19:38 | 41.93752 | 4.93667 | 36160 ft | 454 kts | 42° |
| 2026-04-26 19:39 | 41.98239 | 4.99634 | 36156 ft | 454 kts | 42° |
| 2026-04-26 19:39 | 42.02725 | 5.05601 | 36152 ft | 454 kts | 42° |
| 2026-04-26 19:40 | 42.07211 | 5.11591 | 36158 ft | 454 kts | 43° |
| 2026-04-26 19:40 | 42.11695 | 5.17595 | 36165 ft | 455 kts | 42° |
| 2026-04-26 19:41 | 42.16182 | 5.23609 | 36150 ft | 455 kts | 42° |
| 2026-04-26 19:41 | 42.19939 | 5.28655 | 36147 ft | 455 kts | 42° |
| 2026-04-26 19:42 | 42.25145 | 5.35657 | 36144 ft | 455 kts | 43° |
| 2026-04-26 19:42 | 42.29622 | 5.41706 | 36147 ft | 455 kts | 42° |
| 2026-04-26 19:43 | 42.34098 | 5.47768 | 36141 ft | 456 kts | 42° |
| 2026-04-26 19:43 | 42.38589 | 5.53850 | 36138 ft | 457 kts | 42° |
| 2026-04-26 19:44 | 42.43077 | 5.59935 | 36137 ft | 457 kts | 42° |
| 2026-04-26 19:44 | 42.47567 | 5.66037 | 36151 ft | 457 kts | 42° |
| 2026-04-26 19:45 | 42.52053 | 5.72160 | 36146 ft | 458 kts | 43° |
| 2026-04-26 19:45 | 42.56542 | 5.78296 | 36147 ft | 459 kts | 43° |
| 2026-04-26 19:46 | 42.61034 | 5.84454 | 36145 ft | 459 kts | 43° |
| 2026-04-26 19:46 | 42.65526 | 5.90630 | 36149 ft | 460 kts | 43° |
| 2026-04-26 19:47 | 42.69261 | 5.95773 | 36156 ft | 460 kts | 43° |
| 2026-04-26 19:47 | 42.74520 | 6.03017 | 36162 ft | 460 kts | 43° |
| 2026-04-26 19:48 | 42.79008 | 6.09221 | 36152 ft | 460 kts | 43° |
| 2026-04-26 19:48 | 42.83494 | 6.15442 | 36152 ft | 460 kts | 43° |
| 2026-04-26 19:49 | 42.88209 | 6.21290 | 36154 ft | 458 kts | 37° |
| 2026-04-26 19:49 | 42.93093 | 6.26874 | 36162 ft | 458 kts | 37° |
| 2026-04-26 19:50 | 42.97975 | 6.32473 | 36160 ft | 458 kts | 37° |
| 2026-04-26 19:50 | 43.02856 | 6.38092 | 36159 ft | 459 kts | 38° |
| 2026-04-26 19:51 | 43.07735 | 6.43711 | 36168 ft | 459 kts | 38° |
| 2026-04-26 19:51 | 43.12615 | 6.49344 | 36164 ft | 459 kts | 38° |
| 2026-04-26 19:52 | 43.17490 | 6.55000 | 36167 ft | 459 kts | 38° |
| 2026-04-26 19:52 | 43.22219 | 6.60885 | 36163 ft | 461 kts | 47° |
| 2026-04-26 19:53 | 43.26066 | 6.67958 | 36171 ft | 463 kts | 52° |
| 2026-04-26 19:53 | 43.29844 | 6.75113 | 36170 ft | 463 kts | 52° |
| 2026-04-26 19:54 | 43.33620 | 6.82257 | 36167 ft | 462 kts | 52° |
| 2026-04-26 19:54 | 43.37388 | 6.89421 | 36163 ft | 463 kts | 52° |
| 2026-04-26 19:55 | 43.41154 | 6.96598 | 36165 ft | 463 kts | 52° |
| 2026-04-26 19:55 | 43.44920 | 7.03790 | 36176 ft | 463 kts | 53° |
| 2026-04-26 19:56 | 43.48673 | 7.10989 | 36178 ft | 463 kts | 53° |
| 2026-04-26 19:56 | 43.51792 | 7.16970 | 36178 ft | 462 kts | 53° |
| 2026-04-26 19:57 | 43.55536 | 7.24171 | 36179 ft | 462 kts | 53° |
| 2026-04-26 19:57 | 43.59276 | 7.31386 | 36181 ft | 462 kts | 53° |
| 2026-04-26 19:58 | 43.63008 | 7.38597 | 36185 ft | 462 kts | 53° |
| 2026-04-26 19:58 | 43.66731 | 7.45820 | 36185 ft | 461 kts | 53° |
| 2026-04-26 19:59 | 43.70439 | 7.53046 | 36192 ft | 461 kts | 53° |
| 2026-04-26 19:59 | 43.74146 | 7.60282 | 36186 ft | 461 kts | 53° |
| 2026-04-26 20:00 | 43.77852 | 7.67516 | 36192 ft | 461 kts | 53° |
| 2026-04-26 20:00 | 43.81675 | 7.74625 | 36190 ft | 459 kts | 46° |
| 2026-04-26 20:01 | 43.86470 | 7.80379 | 36186 ft | 456 kts | 36° |
| 2026-04-26 20:01 | 43.91493 | 7.85755 | 36183 ft | 456 kts | 36° |
| 2026-04-26 20:02 | 43.96389 | 7.91365 | 36189 ft | 457 kts | 42° |
| 2026-04-26 20:02 | 44.00180 | 7.96484 | 36190 ft | 457 kts | 42° |
| 2026-04-26 20:03 | 44.05513 | 8.03665 | 36186 ft | 457 kts | 42° |
| 2026-04-26 20:03 | 44.10078 | 8.09815 | 36184 ft | 457 kts | 42° |
| 2026-04-26 20:04 | 44.14632 | 8.15978 | 36195 ft | 456 kts | 42° |
| 2026-04-26 20:04 | 44.19177 | 8.22151 | 36190 ft | 456 kts | 43° |
| 2026-04-26 20:05 | 44.23712 | 8.28336 | 36188 ft | 456 kts | 42° |
| 2026-04-26 20:05 | 44.28249 | 8.34520 | 36188 ft | 456 kts | 43° |
| 2026-04-26 20:06 | 44.32786 | 8.40711 | 36191 ft | 456 kts | 42° |
| 2026-04-26 20:06 | 44.37317 | 8.46919 | 36181 ft | 457 kts | 42° |
| 2026-04-26 20:07 | 44.41856 | 8.53140 | 36175 ft | 457 kts | 42° |
| 2026-04-26 20:07 | 44.46397 | 8.59358 | 36171 ft | 457 kts | 42° |
| 2026-04-26 20:08 | 44.50938 | 8.65589 | 36172 ft | 457 kts | 42° |
| 2026-04-26 20:08 | 44.55476 | 8.71832 | 36171 ft | 457 kts | 43° |
| 2026-04-26 20:09 | 44.60007 | 8.78094 | 36171 ft | 457 kts | 42° |
| 2026-04-26 20:09 | 44.64536 | 8.84365 | 36171 ft | 457 kts | 42° |
| 2026-04-26 20:10 | 44.69062 | 8.90640 | 36168 ft | 457 kts | 42° |
| 2026-04-26 20:10 | 44.73557 | 8.96892 | 36158 ft | 458 kts | 42° |
| 2026-04-26 20:11 | 44.78079 | 9.03191 | 36152 ft | 458 kts | 42° |
| 2026-04-26 20:12 | 44.84889 | 9.12710 | 36151 ft | 458 kts | 42° |
| 2026-04-26 20:12 | 44.89410 | 9.19036 | 36134 ft | 458 kts | 42° |
| 2026-04-26 20:13 | 44.93922 | 9.25372 | 36123 ft | 458 kts | 42° |
| 2026-04-26 20:13 | 44.98430 | 9.31728 | 36122 ft | 458 kts | 42° |
| 2026-04-26 20:14 | 45.02934 | 9.38090 | 36107 ft | 458 kts | 42° |
| 2026-04-26 20:14 | 45.07440 | 9.44466 | 36096 ft | 458 kts | 42° |
| 2026-04-26 20:15 | 45.11919 | 9.50811 | 36081 ft | 458 kts | 42° |
| 2026-04-26 20:15 | 45.16423 | 9.57203 | 36079 ft | 459 kts | 42° |
| 2026-04-26 20:16 | 45.20925 | 9.63619 | 36083 ft | 459 kts | 42° |
| 2026-04-26 20:16 | 45.25424 | 9.70057 | 36089 ft | 460 kts | 42° |
| 2026-04-26 20:17 | 45.29926 | 9.76502 | 36104 ft | 460 kts | 42° |
| 2026-04-26 20:17 | 45.34425 | 9.82956 | 36113 ft | 460 kts | 42° |
| 2026-04-26 20:18 | 45.38926 | 9.89419 | 36087 ft | 460 kts | 42° |
| 2026-04-26 20:18 | 45.43423 | 9.95906 | 36088 ft | 460 kts | 42° |
| 2026-04-26 20:19 | 45.47921 | 10.02408 | 36089 ft | 461 kts | 42° |
| 2026-04-26 20:19 | 45.52416 | 10.08919 | 36089 ft | 461 kts | 42° |
| 2026-04-26 20:20 | 45.56909 | 10.15445 | 36102 ft | 461 kts | 42° |
| 2026-04-26 20:20 | 45.61398 | 10.21986 | 36107 ft | 461 kts | 43° |
| 2026-04-26 20:21 | 45.65881 | 10.28528 | 36119 ft | 461 kts | 42° |
| 2026-04-26 20:21 | 45.70364 | 10.35076 | 36167 ft | 461 kts | 43° |
| 2026-04-26 20:22 | 45.74838 | 10.41644 | 36167 ft | 461 kts | 43° |
| 2026-04-26 20:22 | 45.79307 | 10.48214 | 36180 ft | 461 kts | 43° |
| 2026-04-26 20:23 | 45.83777 | 10.54801 | 36176 ft | 461 kts | 43° |
| 2026-04-26 20:23 | 45.88244 | 10.61398 | 36211 ft | 461 kts | 43° |
| 2026-04-26 20:24 | 45.92926 | 10.67604 | 36212 ft | 455 kts | 31° |
| 2026-04-26 20:24 | 45.98500 | 10.71662 | 36210 ft | 447 kts | 16° |
| 2026-04-26 20:25 | 46.04352 | 10.74701 | 36208 ft | 447 kts | 16° |
| 2026-04-26 20:25 | 46.10191 | 10.77764 | 36176 ft | 447 kts | 17° |
| 2026-04-26 20:25 | 46.13118 | 10.79304 | 35780 ft | 448 kts | 17° |
| 2026-04-26 20:26 | 46.16050 | 10.80845 | 35287 ft | 449 kts | 16° |
| 2026-04-26 20:26 | 46.18983 | 10.82385 | 34970 ft | 449 kts | 17° |
| 2026-04-26 20:26 | 46.21922 | 10.83926 | 34740 ft | 451 kts | 16° |
| 2026-04-26 20:26 | 46.24872 | 10.85476 | 34505 ft | 452 kts | 16° |
| 2026-04-26 20:27 | 46.27827 | 10.87030 | 34291 ft | 452 kts | 16° |
| 2026-04-26 20:27 | 46.33750 | 10.90153 | 34276 ft | 454 kts | 16° |
| 2026-04-26 20:28 | 46.39677 | 10.93294 | 34277 ft | 454 kts | 16° |
| 2026-04-26 20:28 | 46.45609 | 10.96432 | 34203 ft | 454 kts | 16° |
| 2026-04-26 20:29 | 46.51549 | 10.99575 | 33014 ft | 460 kts | 17° |
| 2026-04-26 20:29 | 46.54557 | 11.01172 | 32374 ft | 457 kts | 17° |
| 2026-04-26 20:29 | 46.57526 | 11.02757 | 31790 ft | 453 kts | 17° |
| 2026-04-26 20:29 | 46.60471 | 11.04333 | 31184 ft | 450 kts | 17° |
| 2026-04-26 20:30 | 46.63429 | 11.05750 | 30576 ft | 445 kts | 10° |
| 2026-04-26 20:30 | 46.66461 | 11.06450 | 29930 ft | 439 kts | 360° |
| 2026-04-26 20:30 | 46.69481 | 11.06499 | 29339 ft | 432 kts | 356° |
| 2026-04-26 20:30 | 46.72440 | 11.06484 | 28760 ft | 428 kts | 356° |
| 2026-04-26 20:31 | 46.75406 | 11.06484 | 28195 ft | 424 kts | 356° |
| 2026-04-26 20:31 | 46.78342 | 11.06491 | 27631 ft | 420 kts | 356° |
| 2026-04-26 20:31 | 46.81260 | 11.06501 | 27071 ft | 419 kts | 356° |
| 2026-04-26 20:31 | 46.84158 | 11.06407 | 26533 ft | 413 kts | 351° |
| 2026-04-26 20:32 | 46.86955 | 11.05644 | 26006 ft | 406 kts | 340° |
| 2026-04-26 20:32 | 46.89564 | 11.04190 | 25566 ft | 398 kts | 332° |
| 2026-04-26 20:32 | 46.92069 | 11.02498 | 25109 ft | 394 kts | 332° |
| 2026-04-26 20:32 | 46.94550 | 11.00830 | 24678 ft | 391 kts | 332° |
| 2026-04-26 20:33 | 46.97012 | 10.99195 | 24239 ft | 386 kts | 333° |
| 2026-04-26 20:33 | 46.99452 | 10.97604 | 23801 ft | 382 kts | 333° |
| 2026-04-26 20:33 | 47.01875 | 10.96035 | 23309 ft | 380 kts | 333° |
| 2026-04-26 20:33 | 47.04276 | 10.94481 | 22889 ft | 375 kts | 333° |
| 2026-04-26 20:34 | 47.06647 | 10.92939 | 22470 ft | 372 kts | 333° |
| 2026-04-26 20:34 | 47.08996 | 10.91407 | 22061 ft | 368 kts | 333° |
| 2026-04-26 20:34 | 47.11323 | 10.89885 | 21635 ft | 365 kts | 333° |
| 2026-04-26 20:34 | 47.13633 | 10.88369 | 21216 ft | 362 kts | 333° |
| 2026-04-26 20:35 | 47.15926 | 10.86861 | 20818 ft | 359 kts | 333° |
| 2026-04-26 20:35 | 47.18200 | 10.85365 | 20407 ft | 357 kts | 333° |
| 2026-04-26 20:35 | 47.20462 | 10.83877 | 20002 ft | 355 kts | 334° |
| 2026-04-26 20:35 | 47.22708 | 10.82397 | 19605 ft | 353 kts | 334° |
| 2026-04-26 20:36 | 47.24942 | 10.80924 | 19196 ft | 351 kts | 334° |
| 2026-04-26 20:36 | 47.27169 | 10.79457 | 18798 ft | 350 kts | 334° |
| 2026-04-26 20:36 | 47.29384 | 10.77995 | 18387 ft | 348 kts | 334° |
| 2026-04-26 20:36 | 47.31591 | 10.76534 | 17981 ft | 347 kts | 334° |
| 2026-04-26 20:37 | 47.33782 | 10.75077 | 17584 ft | 345 kts | 333° |
| 2026-04-26 20:37 | 47.35969 | 10.73626 | 17192 ft | 344 kts | 334° |
| 2026-04-26 20:37 | 47.38143 | 10.72184 | 16804 ft | 342 kts | 332° |
| 2026-04-26 20:37 | 47.40172 | 10.70405 | 16431 ft | 338 kts | 323° |
| 2026-04-26 20:38 | 47.42104 | 10.68430 | 16035 ft | 337 kts | 323° |
| 2026-04-26 20:38 | 47.44029 | 10.66468 | 15654 ft | 335 kts | 323° |
| 2026-04-26 20:38 | 47.45946 | 10.64517 | 15274 ft | 334 kts | 323° |
| 2026-04-26 20:38 | 47.47852 | 10.62575 | 14892 ft | 333 kts | 323° |
| 2026-04-26 20:39 | 47.49754 | 10.60633 | 14523 ft | 331 kts | 323° |
| 2026-04-26 20:39 | 47.51006 | 10.59354 | 14273 ft | 330 kts | 323° |
| 2026-04-26 20:39 | 47.53530 | 10.56770 | 13742 ft | 328 kts | 323° |
| 2026-04-26 20:39 | 47.55399 | 10.54854 | 13360 ft | 326 kts | 323° |
| 2026-04-26 20:40 | 47.57256 | 10.52942 | 12991 ft | 324 kts | 323° |
| 2026-04-26 20:40 | 47.59102 | 10.51040 | 12621 ft | 322 kts | 323° |
| 2026-04-26 20:40 | 47.60320 | 10.49783 | 12374 ft | 321 kts | 323° |
| 2026-04-26 20:40 | 47.62149 | 10.47891 | 12005 ft | 320 kts | 323° |
| 2026-04-26 20:41 | 47.63965 | 10.46006 | 11637 ft | 318 kts | 323° |
| 2026-04-26 20:41 | 47.65774 | 10.44128 | 11270 ft | 317 kts | 323° |
| 2026-04-26 20:41 | 47.67576 | 10.42257 | 10912 ft | 315 kts | 323° |
| 2026-04-26 20:41 | 47.69371 | 10.40395 | 10552 ft | 313 kts | 323° |
| 2026-04-26 20:42 | 47.71123 | 10.38576 | 10415 ft | 301 kts | 323° |
| 2026-04-26 20:42 | 47.72723 | 10.36677 | 10267 ft | 289 kts | 311° |
| 2026-04-26 20:42 | 47.73847 | 10.34273 | 10113 ft | 281 kts | 295° |
| 2026-04-26 20:42 | 47.74437 | 10.31519 | 9904 ft | 280 kts | 278° |
| 2026-04-26 20:43 | 47.74498 | 10.28641 | 9767 ft | 280 kts | 269° |
| 2026-04-26 20:43 | 47.74454 | 10.25751 | 9647 ft | 280 kts | 269° |
| 2026-04-26 20:43 | 47.74412 | 10.22863 | 9526 ft | 280 kts | 269° |
| 2026-04-26 20:43 | 47.74370 | 10.19976 | 9407 ft | 279 kts | 269° |
| 2026-04-26 20:44 | 47.74329 | 10.17093 | 9292 ft | 279 kts | 269° |
| 2026-04-26 20:44 | 47.74288 | 10.14212 | 9162 ft | 279 kts | 269° |
| 2026-04-26 20:44 | 47.74247 | 10.11337 | 9042 ft | 278 kts | 269° |
| 2026-04-26 20:44 | 47.74205 | 10.08465 | 8924 ft | 278 kts | 269° |
| 2026-04-26 20:45 | 47.74164 | 10.05599 | 8809 ft | 278 kts | 269° |
| 2026-04-26 20:45 | 47.74120 | 10.02736 | 8692 ft | 277 kts | 269° |
| 2026-04-26 20:45 | 47.74074 | 9.99875 | 8576 ft | 277 kts | 269° |
| 2026-04-26 20:45 | 47.74029 | 9.97013 | 8454 ft | 277 kts | 269° |
| 2026-04-26 20:46 | 47.73980 | 9.94160 | 8336 ft | 275 kts | 269° |
| 2026-04-26 20:46 | 47.73936 | 9.91314 | 8223 ft | 276 kts | 269° |
| 2026-04-26 20:46 | 47.73892 | 9.88475 | 8109 ft | 274 kts | 269° |
| 2026-04-26 20:46 | 47.73847 | 9.85644 | 7993 ft | 274 kts | 269° |
| 2026-04-26 20:47 | 47.73800 | 9.82819 | 7876 ft | 274 kts | 268° |
| 2026-04-26 20:47 | 47.73766 | 9.80941 | 7804 ft | 275 kts | 269° |
| 2026-04-26 20:47 | 47.73692 | 9.77165 | 7650 ft | 274 kts | 268° |
| 2026-04-26 20:47 | 47.73638 | 9.74381 | 7525 ft | 264 kts | 269° |
| 2026-04-26 20:48 | 47.73590 | 9.71715 | 7407 ft | 253 kts | 268° |
| 2026-04-26 20:48 | 47.73542 | 9.69148 | 7310 ft | 247 kts | 269° |
| 2026-04-26 20:48 | 47.73494 | 9.66587 | 7221 ft | 249 kts | 268° |
| 2026-04-26 20:48 | 47.73446 | 9.64024 | 7123 ft | 249 kts | 269° |
| 2026-04-26 20:49 | 47.73398 | 9.61459 | 7020 ft | 248 kts | 269° |
| 2026-04-26 20:49 | 47.73350 | 9.58899 | 6917 ft | 248 kts | 269° |
| 2026-04-26 20:49 | 47.73301 | 9.56337 | 6811 ft | 248 kts | 268° |
| 2026-04-26 20:49 | 47.73249 | 9.53774 | 6715 ft | 248 kts | 268° |
| 2026-04-26 20:50 | 47.73194 | 9.51211 | 6601 ft | 248 kts | 268° |
| 2026-04-26 20:50 | 47.73137 | 9.48649 | 6494 ft | 248 kts | 268° |
| 2026-04-26 20:50 | 47.73084 | 9.46086 | 6389 ft | 248 kts | 268° |
| 2026-04-26 20:50 | 47.73034 | 9.43518 | 6283 ft | 249 kts | 268° |
| 2026-04-26 20:51 | 47.72978 | 9.40948 | 6179 ft | 249 kts | 265° |
| 2026-04-26 20:51 | 47.72636 | 9.38439 | 6073 ft | 249 kts | 250° |
| 2026-04-26 20:51 | 47.71870 | 9.36138 | 5944 ft | 249 kts | 239° |
| 2026-04-26 20:51 | 47.70993 | 9.33916 | 5845 ft | 249 kts | 239° |
| 2026-04-26 20:52 | 47.70121 | 9.31692 | 5733 ft | 250 kts | 239° |
| 2026-04-26 20:52 | 47.69251 | 9.29464 | 5632 ft | 249 kts | 239° |
| 2026-04-26 20:52 | 47.68384 | 9.27247 | 5513 ft | 248 kts | 239° |
| 2026-04-26 20:52 | 47.67520 | 9.25029 | 5404 ft | 247 kts | 239° |
| 2026-04-26 20:53 | 47.66664 | 9.22831 | 5298 ft | 244 kts | 239° |
| 2026-04-26 20:53 | 47.65833 | 9.20696 | 5190 ft | 236 kts | 239° |
| 2026-04-26 20:53 | 47.64888 | 9.18763 | 5091 ft | 227 kts | 217° |
| 2026-04-26 20:53 | 47.63516 | 9.17826 | 4994 ft | 213 kts | 185° |
| 2026-04-26 20:54 | 47.62065 | 9.18080 | 4888 ft | 212 kts | 154° |
| 2026-04-26 20:54 | 47.60780 | 9.19148 | 4783 ft | 212 kts | 147° |
| 2026-04-26 20:54 | 47.59507 | 9.20249 | 4678 ft | 212 kts | 147° |
| 2026-04-26 20:54 | 47.58238 | 9.21366 | 4576 ft | 211 kts | 141° |
| 2026-04-26 20:55 | 47.57333 | 9.23006 | 4475 ft | 206 kts | 109° |
| 2026-04-26 20:55 | 47.57161 | 9.25082 | 4370 ft | 206 kts | 79° |
| 2026-04-26 20:55 | 47.57710 | 9.27025 | 4295 ft | 207 kts | 60° |
| 2026-04-26 20:55 | 47.58438 | 9.28860 | 4196 ft | 207 kts | 60° |
| 2026-04-26 20:56 | 47.59161 | 9.30693 | 4101 ft | 204 kts | 60° |
| 2026-04-26 20:56 | 47.59852 | 9.32456 | 4070 ft | 190 kts | 60° |
| 2026-04-26 20:56 | 47.60500 | 9.34115 | 3840 ft | 183 kts | 60° |
| 2026-04-26 20:56 | 47.61130 | 9.35727 | 3598 ft | 179 kts | 60° |
| 2026-04-26 20:57 | 47.61743 | 9.37299 | 3372 ft | 174 kts | 60° |
| 2026-04-26 20:57 | 47.62342 | 9.38834 | 3160 ft | 171 kts | 60° |
| 2026-04-26 20:57 | 47.62933 | 9.40350 | 2930 ft | 169 kts | 60° |
| 2026-04-26 20:57 | 47.63512 | 9.41836 | 2705 ft | 164 kts | 59° |
| 2026-04-26 20:58 | 47.64069 | 9.43267 | 2463 ft | 154 kts | 59° |
| 2026-04-26 20:58 | 47.64585 | 9.44594 | 2252 ft | 144 kts | 59° |
| 2026-04-26 20:58 | 47.65075 | 9.45851 | 2081 ft | 139 kts | 59° |
| 2026-04-26 20:58 | 47.65555 | 9.47086 | 1876 ft | 138 kts | 59° |
| 2026-04-26 20:59 | 47.66033 | 9.48314 | 1671 ft | 136 kts | 59° |
| 2026-04-26 20:59 | 47.66502 | 9.49528 | 1486 ft | 135 kts | 58° |
| 2026-04-26 20:59 | 47.66960 | 9.50704 | 1375 ft | 117 kts | 60° |
| 2026-04-26 20:59 | 47.67230 | 9.51402 | 1374 ft | 57 kts | 60° |
| 2026-04-26 21:00 | 47.67413 | 9.51871 | 1373 ft | 46 kts | 60° |
| 2026-04-26 21:00 | 47.67484 | 9.52062 | 1374 ft | 13 kts | 61° |
| 2026-04-26 21:00 | 47.67531 | 9.52201 | 1375 ft | 13 kts | 90° |
| 2026-04-26 21:00 | 47.67466 | 9.52334 | 1374 ft | 15 kts | 142° |
| 2026-04-26 21:01 | 47.67418 | 9.52351 | 1374 ft | 5 kts | 202° |
| 2026-04-26 21:01 | 47.67401 | 9.52313 | 1374 ft | 5 kts | 238° |
| 2026-04-26 21:01 | 47.67373 | 9.52299 | 1376 ft | 4 kts | 166° |
| 2026-04-26 21:01 | 47.67350 | 9.52314 | 1375 ft | 3 kts | 154° |
| 2026-04-26 21:02 | 47.67333 | 9.52310 | 1374 ft | 2 kts | 211° |